• Join FlightAware (Why Join?)
  • Login
  • US Flag 
08:38PM EDT


 

Airport Tracker/Info


-or-


 

Live Flight TrackerFlight Track Log ✈ DAL1082 ✈ 10-Oct-2013 ✈ KBHM - KATL

Flight Track Log - Related Links

Times and Time Zones

All times are in EDT time to prevent confusion due to time zone crossing. See the DAL1082 flight status page for this flight to view local times or setup timezone preferences in your user account.

Time Position Orientation Groundspeed Altitude Reporting Facility
EDT Latitude Longitude Course Direction KTS MPH feet Rate Location/Type
02:24PM 33.5725 -86.7439 90° East 168 193 1,600  Level Atlanta Center
02:24PM 33.5900 -86.7072 60° Northeast 190 219 2,700 1,800 Climbing Atlanta Center
02:25PM 33.5889 -86.6647 92° East 237 273 3,400 2,160 Climbing Atlanta Center
02:25PM 33.5517 -86.6486 160° South 278 320 4,900 2,580 Climbing Atlanta Center
02:26PM 33.5206 -86.6353 160° South 280 322 6,000 3,060 Climbing Atlanta Center
02:27PM 33.5763 -86.4385 140° Southeast  Level Estimated
02:27PM 33.4525 -86.6008 157° South 290 334 9,200  Level Atlanta Center
02:28PM 33.5802 -86.3338 90° East  Level Estimated
02:28PM 33.3783 -86.5464 148° Southeast 290 334 11,300  Level Atlanta Center
02:29PM 33.5841 -86.2292 90° East  Level Estimated
02:29PM 33.3108 -86.4822 142° Southeast 350 403 12,500  Level Atlanta Center
02:30PM 33.2569 -86.3492 116° Southeast 371 427 14,900 2,280 Climbing Atlanta Center
02:31PM 33.2514 -86.2000 93° East 383 441 17,100 2,100 Climbing Atlanta Center
02:32PM 33.2436 -86.0506 94° East 424 488 19,200 2,040 Climbing Atlanta Center
02:33PM 33.2375 -85.8992 93° East 442 509 21,200 1,740 Climbing Atlanta Center
02:34PM 33.2272 -85.7425 94° East 455 524 22,700 900 Climbing Atlanta Center
02:35PM 33.2189 -85.5808 93° East 478 550 23,000 -420 Climbing Atlanta Center
02:36PM 33.2103 -85.4267 94° East 478 550 21,900 -2,280 Descending Atlanta Center
02:37PM 33.1994 -85.2800 95° East 455 524 18,500 -3,420 Descending Atlanta Center
02:38PM 33.1925 -85.1411 93° East 439 505 15,100 -2,280 Descending Atlanta Center
02:39PM 33.2061 -85.0069 83° East 395 455 14,000 -1,500 Descending Atlanta Center
02:40PM 33.2797 -84.9086 48° Northeast 389 448 12,100 -1,020 Descending Atlanta Center
02:41PM 33.3494 -84.8122 49° Northeast 383 441 12,000 -60 Descending Atlanta Center
02:42PM 33.4333 -84.7108 45° Northeast 383 441 12,000  Level Atlanta Center
02:43PM 33.5069 -84.6242 44° Northeast 378 435 12,000 -180 Level Atlanta Center
02:44PM 33.5408 -84.5322 66° East 320 368 11,700 -900 Descending Atlanta Center
02:45PM 33.5369 -84.4450 93° East 276 318 10,200 -1,920 Descending Atlanta Center
02:46PM 33.5333 -84.3500 93° East 247 284 7,900 -1,920 Descending Atlanta TRACON
02:48PM 33.5833 -84.2333 63° Northeast 215 247 4,600 -1,560 Descending Atlanta TRACON
02:49PM 33.6167 -84.2833 309° West 199 229 3,300 -1,200 Descending Atlanta TRACON
02:50PM 33.6167 -84.3333 270° West 170 196 2,300 -900 Descending Atlanta TRACON
02:51PM 33.6167 -84.3833 270° West 140 161 1,500 -840 Descending Atlanta TRACON